Time;durP1;ratioP1;P1;durP2;ratioP2;P2;SDS_P1;SDS_P2;PMS_P1;PMS_P2;Temp;Humidity;BMP_temperature;BMP_pressure;BME280_temperature;BME280_humidity;BME280_pressure;Samples;Min_cycle;Max_cycle;Signal;HPM_P1;HPM_P2
2023/06/06 00:00:16;;;;;;;10.27;6.03;;;10.30;99.90;;;;;;5053796;28;19928;-58
2023/06/06 00:02:45;;;;;;;10.13;5.50;;;10.30;99.90;;;;;;5053303;28;20404;-58
2023/06/06 00:05:13;;;;;;;10.98;6.32;;;10.30;99.90;;;;;;5051777;28;20396;-58
2023/06/06 00:07:42;;;;;;;11.23;4.57;;;10.40;99.90;;;;;;5053886;28;20451;-58
2023/06/06 00:10:10;;;;;;;11.80;5.93;;;10.30;99.90;;;;;;5051306;28;20492;-58
2023/06/06 00:12:37;;;;;;;8.75;5.53;;;10.30;99.90;;;;;;5053333;28;20055;-57
2023/06/06 00:15:05;;;;;;;10.70;5.03;;;10.30;99.90;;;;;;5053857;28;20048;-57
2023/06/06 00:17:32;;;;;;;10.98;6.15;;;10.30;99.90;;;;;;5052428;28;20176;-57
2023/06/06 00:20:08;;;;;;;14.98;6.72;;;10.30;99.90;;;;;;5071723;28;20102;-58
2023/06/06 00:22:36;;;;;;;9.90;5.65;;;10.30;99.90;;;;;;5053154;28;20499;-58
2023/06/06 00:25:04;;;;;;;11.00;6.68;;;10.20;99.90;;;;;;5053498;28;20056;-57
2023/06/06 00:27:31;;;;;;;11.52;5.85;;;10.20;99.90;;;;;;5071244;28;20492;-57
2023/06/06 00:29:58;;;;;;;11.45;5.80;;;10.30;99.90;;;;;;5053160;28;20049;-57
2023/06/06 00:32:26;;;;;;;10.32;5.53;;;10.20;99.90;;;;;;5053357;28;20052;-57
2023/06/06 00:34:53;;;;;;;10.68;5.40;;;10.20;99.90;;;;;;5053419;28;20515;-58
2023/06/06 00:37:21;;;;;;;11.20;5.43;;;10.20;99.90;;;;;;5052693;28;20054;-58
2023/06/06 00:39:48;;;;;;;13.57;5.65;;;10.20;99.90;;;;;;5053185;28;20114;-57
2023/06/06 00:42:15;;;;;;;11.57;6.40;;;10.10;99.90;;;;;;5053565;28;20098;-58
2023/06/06 00:44:42;;;;;;;12.65;5.97;;;10.10;99.90;;;;;;5052903;28;20081;-58
2023/06/06 00:47:09;;;;;;;10.52;6.28;;;10.10;99.90;;;;;;5071249;28;20485;-58
2023/06/06 00:49:38;;;;;;;10.30;5.50;;;10.50;99.90;;;;;;5053343;28;20049;-57
2023/06/06 00:52:05;;;;;;;16.58;6.00;;;10.20;99.90;;;;;;5052890;28;20101;-58
2023/06/06 00:54:35;;;;;;;13.05;6.00;;;10.10;99.90;;;;;;5053322;28;20165;-58
2023/06/06 00:57:03;;;;;;;12.02;6.05;;;10.00;99.90;;;;;;5071379;28;20440;-57
2023/06/06 00:59:30;;;;;;;13.48;6.68;;;10.00;99.90;;;;;;5070690;28;20184;-58
2023/06/06 01:01:58;;;;;;;8.73;5.35;;;10.00;99.90;;;;;;5052944;28;20045;-59
2023/06/06 01:04:26;;;;;;;8.57;5.70;;;10.00;99.90;;;;;;5053512;28;20113;-59
2023/06/06 01:06:53;;;;;;;12.35;6.43;;;10.00;99.90;;;;;;5052451;28;20051;-58
2023/06/06 01:09:20;;;;;;;12.32;6.38;;;9.90;99.90;;;;;;5053295;28;20053;-59
2023/06/06 01:12:00;;;;;;;11.38;6.05;;;9.90;99.90;;;;;;5052170;28;20048;-58
2023/06/06 01:14:34;;;;;;;10.63;5.88;;;9.90;99.90;;;;;;5056897;28;20049;-58
2023/06/06 01:17:04;;;;;;;11.80;6.07;;;9.90;99.90;;;;;;5074712;28;20036;-58
2023/06/06 01:19:33;;;;;;;14.43;5.97;;;10.10;99.90;;;;;;5056332;28;20071;-59
2023/06/06 01:22:03;;;;;;;14.70;6.03;;;9.80;99.90;;;;;;5056699;28;20053;-58
2023/06/06 01:24:30;;;;;;;12.30;6.60;;;9.90;99.90;;;;;;5074711;28;20428;-58
2023/06/06 01:26:57;;;;;;;12.18;6.18;;;10.50;99.90;;;;;;5056010;28;20049;-58
2023/06/06 01:29:24;;;;;;;10.05;5.90;;;9.90;99.90;;;;;;5074673;28;20088;-58
2023/06/06 01:32:01;;;;;;;11.32;5.80;;;10.40;99.90;;;;;;5056328;28;20056;-58
2023/06/06 01:34:33;;;;;;;11.50;6.22;;;9.80;99.90;;;;;;5072530;28;20060;-58
2023/06/06 01:37:11;;;;;;;10.93;5.88;;;9.80;99.90;;;;;;5072101;28;20437;-57
2023/06/06 01:39:40;;;;;;;14.90;6.40;;;9.80;99.90;;;;;;5054762;28;20079;-57
2023/06/06 01:42:09;;;;;;;13.30;6.50;;;10.30;99.90;;;;;;5074404;28;20462;-58
2023/06/06 01:44:38;;;;;;;10.15;5.75;;;9.70;99.90;;;;;;5056193;28;20048;-58
2023/06/06 01:47:06;;;;;;;12.40;7.20;;;9.70;99.90;;;;;;5071741;28;20044;-57
2023/06/06 01:49:34;;;;;;;12.10;6.57;;;9.80;99.90;;;;;;5056142;28;20086;-57
2023/06/06 01:52:03;;;;;;;11.70;7.13;;;9.70;99.90;;;;;;5074052;28;20045;-58
2023/06/06 01:54:34;;;;;;;13.10;6.78;;;9.70;99.90;;;;;;5073620;28;20048;-58
2023/06/06 01:57:01;;;;;;;14.40;6.43;;;9.70;99.90;;;;;;5074123;28;20043;-57
2023/06/06 01:59:28;;;;;;;11.10;5.88;;;9.70;99.90;;;;;;5055742;28;20055;-57
2023/06/06 02:01:56;;;;;;;12.32;7.05;;;9.70;99.90;;;;;;5055232;28;20048;-59
2023/06/06 02:04:23;;;;;;;11.82;6.60;;;10.50;99.90;;;;;;5053990;28;20135;-58
2023/06/06 02:06:51;;;;;;;9.77;6.00;;;9.70;99.90;;;;;;5055823;28;20082;-58
2023/06/06 02:09:19;;;;;;;12.55;6.63;;;9.60;99.90;;;;;;5052859;28;20133;-58
2023/06/06 02:11:46;;;;;;;14.82;6.85;;;9.70;99.90;;;;;;5073631;28;20048;-59
2023/06/06 02:14:15;;;;;;;12.82;6.63;;;9.60;99.90;;;;;;5073929;28;20385;-57
2023/06/06 02:16:45;;;;;;;12.35;7.22;;;9.70;99.90;;;;;;5054763;28;20492;-58
2023/06/06 02:19:12;;;;;;;12.00;6.70;;;9.60;99.90;;;;;;5055698;28;20048;-58
2023/06/06 02:21:39;;;;;;;13.65;6.93;;;10.10;99.90;;;;;;5055086;28;20110;-58
2023/06/06 02:24:07;;;;;;;12.35;7.47;;;9.60;99.90;;;;;;5053828;28;20049;-57
2023/06/06 02:26:35;;;;;;;10.65;6.43;;;9.60;99.90;;;;;;5055372;28;20055;-57
2023/06/06 02:29:03;;;;;;;9.80;6.40;;;9.60;99.90;;;;;;5072869;28;20041;-57
2023/06/06 02:31:30;;;;;;;13.43;7.70;;;9.60;99.90;;;;;;5052940;28;20048;-58
2023/06/06 02:33:57;;;;;;;17.00;6.80;;;9.60;99.90;;;;;;5055430;28;20059;-58
2023/06/06 02:36:24;;;;;;;15.32;7.65;;;9.50;99.90;;;;;;5070354;28;20048;-58
2023/06/06 02:38:50;;;;;;;15.18;7.40;;;10.30;99.90;;;;;;5073392;28;20458;-58
2023/06/06 02:41:17;;;;;;;14.20;6.82;;;9.50;99.90;;;;;;5086752;28;20049;-58
2023/06/06 02:43:46;;;;;;;12.20;6.88;;;9.60;99.90;;;;;;5072522;28;20466;-58
2023/06/06 02:46:13;;;;;;;12.77;7.07;;;9.50;99.90;;;;;;5052735;28;20055;-58
2023/06/06 02:48:40;;;;;;;13.82;7.35;;;9.60;99.90;;;;;;5054710;28;20055;-58
2023/06/06 02:51:07;;;;;;;11.95;7.07;;;9.60;99.90;;;;;;5054296;28;20151;-57
2023/06/06 02:53:34;;;;;;;13.38;7.20;;;9.60;99.90;;;;;;5072317;28;20132;-57
2023/06/06 02:56:01;;;;;;;15.63;7.30;;;9.60;99.90;;;;;;5072872;28;20063;-57
2023/06/06 02:58:30;;;;;;;15.68;7.45;;;9.60;99.90;;;;;;5054225;28;20056;-58
2023/06/06 03:01:00;;;;;;;12.65;7.40;;;9.60;99.90;;;;;;5054383;28;20048;-58
2023/06/06 03:03:27;;;;;;;;;;;10.20;99.90;;;;;;5054570;28;20485;-58
2023/06/06 03:05:56;;;;;;;12.32;7.18;;;9.60;99.90;;;;;;5053766;28;19920;-57
2023/06/06 03:08:23;;;;;;;11.30;7.03;;;9.50;99.90;;;;;;5070100;28;20044;-58
2023/06/06 03:10:52;;;;;;;15.65;7.80;;;9.50;99.90;;;;;;5072210;28;20048;-58
2023/06/06 03:13:19;;;;;;;14.25;7.57;;;9.60;99.90;;;;;;5053686;28;20052;-58
2023/06/06 03:15:46;;;;;;;19.13;8.77;;;9.50;99.90;;;;;;5054564;28;20056;-57
2023/06/06 03:18:16;;;;;;;16.85;8.10;;;9.60;99.90;;;;;;5053743;28;20172;-58
2023/06/06 03:20:45;;;;;;;10.98;7.53;;;9.60;99.90;;;;;;5052691;28;20079;-58
2023/06/06 03:23:13;;;;;;;16.92;8.02;;;9.60;99.90;;;;;;5054391;28;20083;-58
2023/06/06 03:25:41;;;;;;;12.95;7.22;;;9.60;99.90;;;;;;5053912;28;20445;-58
2023/06/06 03:28:08;;;;;;;12.65;8.02;;;9.70;99.90;;;;;;5054293;28;20488;-57
2023/06/06 03:30:35;;;;;;;20.88;7.93;;;9.70;99.90;;;;;;5071968;28;20098;-59
2023/06/06 03:33:03;;;;;;;14.20;6.93;;;9.70;99.90;;;;;;5071309;28;20102;-58
2023/06/06 03:35:34;;;;;;;11.60;6.70;;;9.90;99.90;;;;;;5050927;28;20055;-58
2023/06/06 03:38:02;;;;;;;11.15;6.65;;;9.80;99.90;;;;;;5043602;28;20065;-58
2023/06/06 03:40:29;;;;;;;11.93;6.65;;;9.90;99.90;;;;;;5050524;28;20456;-58
2023/06/06 03:42:55;;;;;;;14.75;7.05;;;10.00;99.90;;;;;;5053049;28;20122;-58
2023/06/06 03:45:22;;;;;;;12.70;7.45;;;10.10;99.90;;;;;;5049551;28;20060;-58
2023/06/06 03:47:50;;;;;;;10.63;6.53;;;10.10;99.90;;;;;;5051673;28;20056;-57
2023/06/06 03:50:17;;;;;;;14.73;6.80;;;10.10;99.90;;;;;;5070499;28;20048;-58
2023/06/06 03:52:46;;;;;;;13.65;7.03;;;10.20;99.90;;;;;;5069195;28;20504;-58
2023/06/06 03:55:13;;;;;;;10.98;6.55;;;10.20;99.90;;;;;;5051244;28;20053;-59
2023/06/06 03:57:40;;;;;;;15.57;6.35;;;10.30;99.90;;;;;;5052960;28;20048;-59
2023/06/06 04:00:10;;;;;;;14.52;6.85;;;10.40;99.90;;;;;;5049951;28;20059;-59
2023/06/06 04:02:38;;;;;;;11.13;6.63;;;10.40;99.90;;;;;;5052062;28;20091;-58
2023/06/06 04:05:05;;;;;;;16.17;6.85;;;11.20;99.90;;;;;;5070287;28;20071;-58
2023/06/06 04:07:33;;;;;;;9.80;6.63;;;10.50;99.90;;;;;;5052130;28;20048;-59
2023/06/06 04:10:01;;;;;;;9.70;6.00;;;10.50;99.90;;;;;;5050384;28;20056;-58
2023/06/06 04:12:28;;;;;;;10.75;6.13;;;10.60;99.90;;;;;;5050720;28;20060;-58
2023/06/06 04:14:55;;;;;;;11.65;6.35;;;10.80;99.90;;;;;;5068528;28;20098;-58
2023/06/06 04:17:24;;;;;;;10.88;7.10;;;10.90;99.90;;;;;;5051305;28;20048;-59
2023/06/06 04:19:51;;;;;;;15.73;6.70;;;10.90;99.90;;;;;;5050073;28;20059;-58
2023/06/06 04:22:19;;;;;;;11.52;6.20;;;11.10;99.90;;;;;;5066349;28;20052;-58
2023/06/06 04:24:47;;;;;;;16.33;6.45;;;10.90;99.90;;;;;;5070655;28;20064;-57
2023/06/06 04:27:16;;;;;;;11.95;5.82;;;10.90;99.90;;;;;;5069369;28;20040;-57
2023/06/06 04:29:43;;;;;;;11.25;6.47;;;11.00;99.90;;;;;;5069854;28;20510;-59
2023/06/06 04:32:13;;;;;;;15.18;6.75;;;11.10;99.90;;;;;;5051787;28;20078;-58
2023/06/06 04:34:41;;;;;;;17.10;7.10;;;11.10;99.90;;;;;;5051572;28;20106;-58
2023/06/06 04:37:08;;;;;;;15.02;7.43;;;11.10;99.90;;;;;;5067212;28;20128;-58
2023/06/06 04:39:36;;;;;;;12.18;7.03;;;11.20;99.90;;;;;;5052748;28;20121;-58
2023/06/06 04:42:04;;;;;;;15.50;6.97;;;11.20;99.90;;;;;;5046623;28;20049;-58
2023/06/06 04:44:33;;;;;;;13.43;7.60;;;11.30;99.90;;;;;;5070055;28;20464;-58
2023/06/06 04:47:03;;;;;;;10.23;5.88;;;11.30;99.90;;;;;;5069147;28;20037;-58
2023/06/06 04:49:35;;;;;;;14.80;6.15;;;11.30;99.90;;;;;;5052802;28;20139;-59
2023/06/06 04:52:03;;;;;;;13.63;6.43;;;11.30;99.90;;;;;;5072114;28;20040;-58
2023/06/06 04:54:31;;;;;;;10.90;6.05;;;11.40;99.90;;;;;;5055806;28;20061;-58
2023/06/06 04:56:58;;;;;;;16.45;6.05;;;11.70;99.90;;;;;;5054966;28;20855;-58
2023/06/06 04:59:27;;;;;;;13.07;6.30;;;11.90;99.90;;;;;;5051328;28;20060;-58
2023/06/06 05:01:56;;;;;;;15.02;6.57;;;11.60;99.90;;;;;;5072688;28;20060;-58
2023/06/06 05:04:24;;;;;;;15.63;6.80;;;12.10;99.90;;;;;;5071979;28;20049;-58
2023/06/06 05:06:51;;;;;;;11.75;5.53;;;11.80;99.90;;;;;;5055914;28;20040;-58
2023/06/06 05:09:18;;;;;;;15.00;6.07;;;12.00;99.90;;;;;;5052598;28;20115;-58
2023/06/06 05:11:46;;;;;;;15.95;6.07;;;12.10;99.90;;;;;;5053305;28;20053;-59
2023/06/06 05:14:13;;;;;;;12.38;5.80;;;12.20;99.90;;;;;;5071506;28;20057;-59
2023/06/06 05:16:41;;;;;;;16.15;5.60;;;12.40;99.90;;;;;;5071797;28;20045;-59
2023/06/06 05:19:09;;;;;;;11.07;5.65;;;12.50;99.90;;;;;;5050829;28;20049;-58
2023/06/06 05:21:36;;;;;;;10.65;6.30;;;12.60;99.90;;;;;;5070550;28;20048;-59
2023/06/06 05:24:03;;;;;;;11.68;6.75;;;12.80;99.90;;;;;;5052854;28;20131;-59
2023/06/06 05:26:31;;;;;;;10.57;5.72;;;12.90;99.90;;;;;;5053108;28;20052;-59
2023/06/06 05:28:58;;;;;;;14.25;6.28;;;13.10;99.90;;;;;;5071251;28;20133;-58
2023/06/06 05:31:25;;;;;;;9.88;5.93;;;13.20;99.90;;;;;;5051825;28;20052;-58
2023/06/06 05:33:53;;;;;;;12.82;5.78;;;13.40;99.90;;;;;;5053657;28;20049;-58
2023/06/06 05:36:21;;;;;;;10.85;5.03;;;13.40;99.90;;;;;;5055616;28;20087;-58
2023/06/06 05:38:48;;;;;;;13.13;6.25;;;13.60;99.90;;;;;;5071612;28;20090;-59
2023/06/06 05:41:15;;;;;;;9.32;5.55;;;13.70;99.90;;;;;;5054952;28;20075;-58
2023/06/06 05:43:46;;;;;;;14.02;5.68;;;13.80;99.90;;;;;;5071546;28;20057;-59
2023/06/06 05:46:13;;;;;;;;;;;14.00;99.90;;;;;;5070243;28;20103;-58
2023/06/06 05:48:40;;;;;;;12.75;5.53;;;14.10;99.90;;;;;;5055078;28;19950;-58
2023/06/06 05:51:08;;;;;;;12.95;6.60;;;14.80;99.90;;;;;;5051385;28;20072;-59
2023/06/06 05:53:40;;;;;;;13.25;5.68;;;14.50;99.90;;;;;;5072056;28;20533;-57
2023/06/06 05:56:07;;;;;;;8.48;4.80;;;14.50;99.90;;;;;;5054053;28;20056;-59
2023/06/06 05:58:34;;;;;;;12.43;5.53;;;14.60;99.90;;;;;;5053948;28;20102;-59
2023/06/06 06:01:01;;;;;;;10.50;4.85;;;14.70;99.90;;;;;;5054364;28;20105;-59
2023/06/06 06:03:29;;;;;;;7.57;4.78;;;14.70;99.90;;;;;;5071624;28;20040;-59
2023/06/06 06:06:02;;;;;;;10.45;4.90;;;14.80;99.90;;;;;;5072279;28;20048;-59
2023/06/06 06:08:29;;;;;;;9.32;4.70;;;15.00;99.90;;;;;;5054937;28;20049;-58
2023/06/06 06:10:57;;;;;;;10.95;4.72;;;15.00;99.90;;;;;;5055520;28;20048;-58
2023/06/06 06:13:24;;;;;;;9.65;4.10;;;15.20;99.90;;;;;;5073853;28;20049;-59
2023/06/06 06:15:51;;;;;;;13.90;5.50;;;15.40;99.90;;;;;;5073170;28;20127;-59
2023/06/06 06:18:18;;;;;;;12.95;4.30;;;15.30;99.90;;;;;;5055389;28;20048;-58
2023/06/06 06:20:47;;;;;;;17.83;5.25;;;15.20;99.90;;;;;;5055511;28;20064;-58
2023/06/06 06:23:14;;;;;;;20.52;5.55;;;15.20;99.90;;;;;;5054789;28;20056;-59
2023/06/06 06:25:41;;;;;;;7.55;3.92;;;15.20;99.90;;;;;;5073482;28;20044;-58
2023/06/06 06:28:19;;;;;;;10.38;4.30;;;15.30;99.90;;;;;;5054586;28;20048;-58
2023/06/06 06:30:46;;;;;;;9.35;3.92;;;15.40;99.90;;;;;;5072792;28;20123;-59
2023/06/06 06:33:13;;;;;;;11.20;4.20;;;15.60;99.90;;;;;;5055207;28;20492;-58
2023/06/06 06:35:41;;;;;;;9.13;3.83;;;15.90;99.90;;;;;;5054700;28;20051;-58
2023/06/06 06:38:08;;;;;;;6.40;3.78;;;16.10;99.90;;;;;;5054717;28;20051;-58
2023/06/06 06:40:35;;;;;;;10.40;3.75;;;16.30;99.90;;;;;;5055148;28;20060;-58
2023/06/06 06:43:02;;;;;;;10.25;4.00;;;16.50;99.90;;;;;;5054569;28;20060;-59
2023/06/06 06:45:30;;;;;;;7.18;3.55;;;16.70;99.90;;;;;;5055092;28;20052;-59
2023/06/06 06:47:59;;;;;;;9.18;3.38;;;17.00;99.90;;;;;;5054797;28;20052;-59
2023/06/06 06:50:25;;;;;;;9.23;3.85;;;17.30;99.90;;;;;;5052266;28;20044;-59
2023/06/06 06:52:53;;;;;;;7.13;3.30;;;17.50;99.90;;;;;;5054717;28;20059;-59
2023/06/06 06:55:23;;;;;;;12.68;3.85;;;17.70;99.90;;;;;;5072704;28;20473;-59
2023/06/06 06:57:51;;;;;;;8.63;3.50;;;17.90;99.90;;;;;;5054293;28;20102;-59
2023/06/06 07:00:21;;;;;;;7.70;3.85;;;17.90;99.90;;;;;;5071438;28;20048;-58
2023/06/06 07:02:51;;;;;;;7.93;3.70;;;18.00;99.90;;;;;;5052938;28;20063;-58
2023/06/06 07:05:18;;;;;;;7.78;3.17;;;18.20;99.90;;;;;;5053968;28;20055;-59
2023/06/06 07:07:47;;;;;;;8.13;3.85;;;18.40;99.90;;;;;;5072819;28;20040;-59
2023/06/06 07:10:15;;;;;;;8.13;3.55;;;19.00;99.90;;;;;;5053078;28;20080;-59
2023/06/06 07:12:42;;;;;;;7.07;3.00;;;19.20;99.90;;;;;;5053778;28;20049;-59
2023/06/06 07:15:10;;;;;;;6.47;3.10;;;19.60;99.90;;;;;;5054686;28;20048;-59
2023/06/06 07:17:37;;;;;;;5.72;2.88;;;19.50;99.90;;;;;;5071732;28;20052;-59
2023/06/06 07:20:08;;;;;;;6.03;3.30;;;19.60;99.90;;;;;;5054475;28;20447;-60
2023/06/06 07:22:36;;;;;;;7.55;3.13;;;19.90;99.90;;;;;;5072384;28;20046;-59
2023/06/06 07:25:04;;;;;;;7.30;3.40;;;19.90;99.90;;;;;;5053897;28;20527;-59
2023/06/06 07:27:35;;;;;;;6.47;3.25;;;20.20;99.90;;;;;;5054415;28;20052;-59
2023/06/06 07:30:02;;;;;;;5.60;3.55;;;20.30;99.90;;;;;;5072319;28;20060;-59
2023/06/06 07:32:29;;;;;;;8.23;3.70;;;20.70;99.90;;;;;;5053765;28;20067;-59
2023/06/06 07:34:56;;;;;;;5.90;3.22;;;20.90;99.90;;;;;;5069906;28;20052;-59
2023/06/06 07:37:25;;;;;;;7.80;3.55;;;21.10;99.90;;;;;;5072230;28;20059;-60
2023/06/06 07:39:52;;;;;;;7.65;3.42;;;21.20;99.30;;;;;;5069779;28;20044;-60
2023/06/06 07:42:20;;;;;;;6.85;3.22;;;21.20;99.90;;;;;;5072067;28;20083;-59
2023/06/06 07:44:48;;;;;;;8.43;3.97;;;21.60;99.90;;;;;;5053809;28;20106;-60
2023/06/06 07:47:15;;;;;;;9.40;3.60;;;22.00;98.70;;;;;;5071524;28;20051;-60
2023/06/06 07:49:43;;;;;;;7.00;3.60;;;22.10;99.00;;;;;;5054126;28;20071;-60
2023/06/06 07:52:11;;;;;;;8.18;3.53;;;22.30;98.70;;;;;;5071954;28;20075;-60
2023/06/06 07:54:41;;;;;;;11.25;3.55;;;22.60;98.20;;;;;;5053229;28;20141;-59
2023/06/06 07:57:10;;;;;;;6.78;3.50;;;22.70;95.90;;;;;;5071773;28;20481;-60
2023/06/06 07:59:38;;;;;;;7.90;3.15;;;22.80;96.70;;;;;;5053357;28;20053;-60
2023/06/06 08:02:06;;;;;;;5.93;3.17;;;23.00;96.60;;;;;;5053992;28;20558;-59
2023/06/06 08:04:33;;;;;;;8.23;3.90;;;23.00;95.40;;;;;;5069610;28;20051;-59
2023/06/06 08:07:03;;;;;;;5.82;3.33;;;22.70;95.10;;;;;;5071090;28;20119;-58
2023/06/06 08:09:31;;;;;;;6.55;3.33;;;22.80;95.10;;;;;;5069890;28;20048;-59
2023/06/06 08:12:00;;;;;;;7.05;2.97;;;23.10;94.80;;;;;;5053935;28;20122;-59
2023/06/06 08:14:26;;;;;;;7.55;3.38;;;23.40;94.00;;;;;;5052778;28;20060;-60
2023/06/06 08:16:53;;;;;;;9.35;4.13;;;23.40;94.10;;;;;;5053913;28;20048;-60
2023/06/06 08:19:20;;;;;;;8.05;2.85;;;23.20;93.80;;;;;;5053348;28;20495;-60
2023/06/06 08:21:47;;;;;;;6.78;3.50;;;23.50;94.00;;;;;;5073001;28;20045;-60
2023/06/06 08:24:14;;;;;;;9.68;3.65;;;23.30;93.30;;;;;;5075761;28;20044;-60
2023/06/06 08:26:41;;;;;;;5.10;3.58;;;23.30;93.30;;;;;;5075924;28;20083;-60
2023/06/06 08:29:10;;;;;;;5.40;3.00;;;23.40;93.30;;;;;;5054966;28;20055;-60
2023/06/06 08:31:37;;;;;;;7.93;3.28;;;23.40;93.10;;;;;;5075348;28;20058;-60
2023/06/06 08:34:03;;;;;;;7.45;3.50;;;23.60;93.10;;;;;;5057658;28;20488;-60
2023/06/06 08:36:31;;;;;;;9.82;4.20;;;23.80;92.70;;;;;;5057004;28;20127;-60
2023/06/06 08:38:57;;;;;;;6.82;3.35;;;23.70;92.50;;;;;;5057183;28;20075;-60
2023/06/06 08:41:26;;;;;;;6.97;3.20;;;24.10;92.80;;;;;;5057296;28;20052;-60
2023/06/06 08:43:54;;;;;;;6.30;3.73;;;23.90;92.30;;;;;;5056622;28;20080;-60
2023/06/06 08:46:25;;;;;;;7.53;3.03;;;24.10;92.30;;;;;;5075450;28;20094;-60
2023/06/06 08:48:53;;;;;;;8.05;3.33;;;24.40;91.60;;;;;;5056612;28;20056;-60
2023/06/06 08:51:25;;;;;;;9.80;3.28;;;24.70;90.80;;;;;;5057182;28;20106;-60
2023/06/06 08:53:53;;;;;;;5.20;2.70;;;24.60;90.50;;;;;;5055638;28;20045;-60
2023/06/06 08:56:22;;;;;;;4.88;3.00;;;25.10;91.00;;;;;;5054299;28;20051;-60
2023/06/06 08:58:51;;;;;;;5.57;2.83;;;25.10;90.70;;;;;;5074689;28;20054;-60
2023/06/06 09:01:19;;;;;;;6.45;2.90;;;25.30;90.60;;;;;;5057160;28;20105;-60
2023/06/06 09:03:53;;;;;;;6.82;3.03;;;25.30;90.30;;;;;;5072650;28;20443;-61
2023/06/06 09:06:21;;;;;;;8.65;3.78;;;25.20;89.90;;;;;;5056867;28;20051;-60
2023/06/06 09:08:49;;;;;;;7.22;4.10;;;25.20;90.00;;;;;;5074117;28;20053;-60
2023/06/06 09:11:17;;;;;;;6.53;3.28;;;25.40;90.00;;;;;;5056308;28;20087;-60
2023/06/06 09:13:45;;;;;;;6.40;3.40;;;25.50;89.70;;;;;;5074813;28;20087;-60
2023/06/06 09:16:14;;;;;;;9.98;3.40;;;25.60;89.60;;;;;;5055899;28;20098;-60
2023/06/06 09:18:41;;;;;;;5.30;3.28;;;25.30;89.10;;;;;;5074199;28;20434;-60
2023/06/06 09:21:10;;;;;;;7.90;3.50;;;25.20;88.90;;;;;;5056474;28;20186;-60
2023/06/06 09:23:37;;;;;;;6.35;3.40;;;25.20;88.70;;;;;;5056519;28;20048;-60
2023/06/06 09:26:17;;;;;;;7.70;3.97;;;25.30;89.00;;;;;;5055945;28;20052;-59
2023/06/06 09:28:44;;;;;;;9.27;3.90;;;25.50;89.20;;;;;;5072967;28;20504;-59
2023/06/06 09:31:29;;;;;;;6.22;3.05;;;25.70;89.20;;;;;;5055820;28;20053;-60
2023/06/06 09:33:58;;;;;;;11.25;4.13;;;25.50;88.10;;;;;;5055794;28;20047;-60
2023/06/06 09:36:28;;;;;;;5.88;3.60;;;25.60;89.00;;;;;;5054161;28;20052;-59
2023/06/06 09:39:00;;;;;;;8.35;3.97;;;25.90;88.90;;;;;;5055785;28;20048;-60
2023/06/06 09:41:28;;;;;;;9.13;4.40;;;25.80;88.20;;;;;;5056385;28;20543;-60
2023/06/06 09:43:56;;;;;;;6.27;3.70;;;25.80;87.60;;;;;;5056445;28;20056;-60
2023/06/06 09:46:24;;;;;;;8.98;4.22;;;26.00;87.70;;;;;;5073536;28;20045;-60
2023/06/06 09:48:58;;;;;;;8.07;3.88;;;25.70;87.30;;;;;;5055911;28;20040;-60
2023/06/06 09:51:26;;;;;;;10.05;4.47;;;25.70;86.90;;;;;;5056369;28;20049;-60
2023/06/06 09:53:53;;;;;;;9.32;3.55;;;25.90;87.10;;;;;;5053445;28;20056;-60
2023/06/06 09:56:22;;;;;;;12.15;3.88;;;26.10;87.00;;;;;;5074016;28;20049;-60
2023/06/06 09:58:55;;;;;;;8.07;3.47;;;26.20;86.20;;;;;;5074008;28;20093;-61
2023/06/06 10:01:27;;;;;;;8.32;3.47;;;26.10;85.90;;;;;;5072863;28;20424;-60
2023/06/06 10:03:56;;;;;;;7.13;3.97;;;26.30;85.30;;;;;;5055865;28;20798;-60
2023/06/06 10:06:24;;;;;;;7.10;4.15;;;26.60;84.90;;;;;;5055380;28;20447;-60
2023/06/06 10:08:54;;;;;;;9.63;4.20;;;26.90;85.10;;;;;;5055623;28;20049;-60
2023/06/06 10:11:22;;;;;;;6.68;3.70;;;26.90;85.10;;;;;;5055762;28;20044;-60
2023/06/06 10:13:49;;;;;;;9.45;3.95;;;26.70;85.00;;;;;;5072750;28;20078;-60
2023/06/06 10:16:18;;;;;;;8.00;3.42;;;26.50;85.30;;;;;;5055836;28;20131;-61
2023/06/06 10:18:46;;;;;;;7.78;3.88;;;26.50;84.90;;;;;;5073305;28;20487;-60
2023/06/06 10:21:15;;;;;;;8.48;3.67;;;26.50;84.50;;;;;;5055263;28;20105;-60
2023/06/06 10:23:42;;;;;;;8.13;3.45;;;26.60;85.50;;;;;;5073426;28;20048;-61
2023/06/06 10:26:16;;;;;;;7.63;3.67;;;26.40;85.30;;;;;;5055333;28;20056;-61
2023/06/06 10:28:51;;;;;;;8.20;3.60;;;26.60;85.20;;;;;;5054967;28;20097;-60
2023/06/06 10:31:30;;;;;;;7.70;3.58;;;26.70;85.50;;;;;;5055636;28;20053;-60
2023/06/06 10:34:00;;;;;;;11.27;4.60;;;26.70;85.30;;;;;;5053053;28;20076;-60
2023/06/06 10:36:27;;;;;;;8.95;4.30;;;27.00;84.60;;;;;;5072664;28;20095;-60
2023/06/06 10:39:29;;;;;;;8.07;4.32;;;26.70;84.80;;;;;;5073249;28;20439;-60
2023/06/06 10:42:06;;;;;;;8.60;4.30;;;26.40;84.00;;;;;;4974784;28;20054;-60
2023/06/06 10:44:36;;;;;;;8.75;4.47;;;26.40;84.40;;;;;;4990785;28;20046;-59
2023/06/06 10:47:27;;;;;;;6.85;3.67;;;26.20;84.90;;;;;;5018682;28;20056;-59
2023/06/06 10:50:19;;;;;;;7.53;3.95;;;26.20;84.40;;;;;;5054338;28;20128;-60
2023/06/06 10:52:46;;;;;;;6.60;3.60;;;26.80;84.20;;;;;;5044415;28;20106;-61
2023/06/06 10:55:17;;;;;;;7.25;3.95;;;27.10;84.60;;;;;;5052306;28;20048;-61
2023/06/06 10:57:54;;;;;;;8.82;3.92;;;27.30;84.10;;;;;;5054352;28;20067;-60
2023/06/06 11:00:23;;;;;;;7.45;4.43;;;27.40;83.50;;;;;;5052488;28;20044;-60
2023/06/06 11:02:50;;;;;;;10.60;3.83;;;27.40;83.90;;;;;;5072137;28;20057;-59
2023/06/06 11:05:18;;;;;;;7.78;3.50;;;27.50;83.50;;;;;;5072876;28;20105;-59
2023/06/06 11:08:00;;;;;;;8.45;4.07;;;27.60;84.20;;;;;;5152569;27;20319;-60
2023/06/06 11:10:28;;;;;;;7.57;3.80;;;26.70;82.80;;;;;;5141433;27;20054;-59
2023/06/06 11:12:55;;;;;;;6.82;3.45;;;26.80;84.10;;;;;;5133986;27;20043;-59
2023/06/06 11:15:30;;;;;;;9.00;4.10;;;27.40;84.20;;;;;;5114241;27;20055;-60
2023/06/06 11:18:05;;;;;;;8.35;4.18;;;27.20;83.60;;;;;;5131425;27;20047;-59
2023/06/06 11:20:40;;;;;;;12.10;3.80;;;27.50;82.40;;;;;;5131041;27;20035;-59
2023/06/06 11:23:11;;;;;;;12.35;4.15;;;27.20;82.10;;;;;;5131483;27;20134;-59
2023/06/06 11:25:38;;;;;;;9.27;4.80;;;27.30;82.50;;;;;;5139889;27;20048;-60
2023/06/06 11:28:05;;;;;;;15.65;5.57;;;26.90;83.20;;;;;;5115588;27;20096;-59
2023/06/06 11:30:33;;;;;;;24.80;6.57;;;26.70;83.50;;;;;;5113250;27;20089;-60
2023/06/06 11:33:00;;;;;;;7.25;3.78;;;26.70;84.10;;;;;;5131413;27;20043;-60
2023/06/06 11:35:28;;;;;;;11.77;5.00;;;26.80;83.00;;;;;;5113123;27;20100;-60
2023/06/06 11:37:56;;;;;;;8.80;4.25;;;26.90;83.10;;;;;;5130745;27;20047;-59
2023/06/06 11:40:27;;;;;;;16.40;4.57;;;27.00;83.10;;;;;;5142569;27;20103;-60
2023/06/06 11:42:54;;;;;;;12.88;5.90;;;26.40;82.10;;;;;;5113430;27;20070;-59
2023/06/06 11:45:21;;;;;;;9.45;3.97;;;26.30;83.50;;;;;;5113531;27;20114;-59
2023/06/06 11:47:48;;;;;;;10.13;3.80;;;26.50;83.40;;;;;;5130991;27;20043;-60
2023/06/06 11:50:27;;;;;;;7.65;4.32;;;26.70;83.40;;;;;;5113528;27;20052;-59
2023/06/06 11:52:54;;;;;;;8.27;3.73;;;27.00;82.50;;;;;;5149592;27;20043;-60
2023/06/06 11:55:34;;;;;;;9.23;3.95;;;27.20;82.50;;;;;;5132562;27;20096;-60
2023/06/06 11:58:04;;;;;;;11.13;3.78;;;27.30;82.80;;;;;;5131136;27;20043;-60
2023/06/06 12:00:31;;;;;;;;;;;27.30;82.90;;;;;;5144165;27;20117;-60
2023/06/06 12:02:59;;;;;;;10.15;3.97;;;27.50;82.30;;;;;;5130872;27;19933;-61
2023/06/06 12:05:28;;;;;;;8.23;3.17;;;27.20;82.70;;;;;;5130322;27;20506;-60
2023/06/06 12:07:58;;;;;;;7.63;3.75;;;27.40;82.60;;;;;;5113031;28;20048;-60
2023/06/06 12:10:27;;;;;;;9.52;3.67;;;27.60;82.00;;;;;;5091853;28;20064;-60
2023/06/06 12:12:54;;;;;;;11.68;4.07;;;27.70;81.80;;;;;;5124692;28;20388;-59
2023/06/06 12:15:27;;;;;;;9.25;3.53;;;27.70;81.30;;;;;;5114333;28;20085;-60
2023/06/06 12:17:54;;;;;;;7.63;4.00;;;27.00;81.30;;;;;;5108085;28;20147;-60
2023/06/06 12:20:24;;;;;;;8.82;3.55;;;27.10;81.80;;;;;;5093314;28;20052;-59
2023/06/06 12:22:52;;;;;;;39.25;6.70;;;26.90;81.10;;;;;;5100607;28;20469;-59
2023/06/06 12:25:24;;;;;;;7.70;3.25;;;26.60;82.00;;;;;;5101946;28;20499;-60
2023/06/06 12:27:53;;;;;;;8.82;3.65;;;26.80;81.40;;;;;;5077059;28;20090;-60
2023/06/06 12:30:31;;;;;;;6.32;3.10;;;26.90;81.50;;;;;;5079095;28;20059;-60
2023/06/06 12:32:59;;;;;;;8.85;2.95;;;26.70;81.50;;;;;;5076079;28;20132;-60
2023/06/06 12:35:26;;;;;;;10.18;3.15;;;26.20;81.70;;;;;;5100325;28;20055;-59
2023/06/06 12:37:53;;;;;;;8.38;3.25;;;26.60;81.90;;;;;;5101353;28;20067;-59
2023/06/06 12:40:23;;;;;;;11.95;3.55;;;26.40;82.00;;;;;;5100489;28;20085;-61
2023/06/06 12:42:53;;;;;;;8.20;2.70;;;26.60;81.80;;;;;;5100579;28;20079;-60
2023/06/06 12:45:20;;;;;;;7.20;3.10;;;26.60;81.30;;;;;;5077220;28;20113;-60
2023/06/06 12:47:51;;;;;;;7.63;3.03;;;26.60;82.30;;;;;;5108803;28;20044;-60
2023/06/06 12:50:18;;;;;;;7.00;3.55;;;26.80;82.00;;;;;;5077131;28;20056;-60